sensor_id;sensor_type;location;lat;lon;timestamp;temperature;humidity
9509;DHT22;4792;50.088;8.122;2022-08-16T00:02:29;18.70;99.90
9509;DHT22;4792;50.088;8.122;2022-08-16T00:04:58;18.70;99.90
9509;DHT22;4792;50.088;8.122;2022-08-16T00:07:27;18.60;99.90
9509;DHT22;4792;50.088;8.122;2022-08-16T00:09:57;18.50;99.90
9509;DHT22;4792;50.088;8.122;2022-08-16T00:12:27;18.50;99.90
9509;DHT22;4792;50.088;8.122;2022-08-16T00:14:57;18.40;99.90
9509;DHT22;4792;50.088;8.122;2022-08-16T00:17:26;18.30;99.90
9509;DHT22;4792;50.088;8.122;2022-08-16T00:20:14;18.20;99.90
9509;DHT22;4792;50.088;8.122;2022-08-16T00:22:46;18.10;99.90
9509;DHT22;4792;50.088;8.122;2022-08-16T00:25:20;18.10;99.90
9509;DHT22;4792;50.088;8.122;2022-08-16T00:28:09;18.10;99.90
9509;DHT22;4792;50.088;8.122;2022-08-16T00:30:38;18.10;99.90
9509;DHT22;4792;50.088;8.122;2022-08-16T00:33:07;18.10;99.90
9509;DHT22;4792;50.088;8.122;2022-08-16T00:35:36;18.10;99.90
9509;DHT22;4792;50.088;8.122;2022-08-16T00:38:06;18.10;99.90
9509;DHT22;4792;50.088;8.122;2022-08-16T00:40:56;18.30;99.90
9509;DHT22;4792;50.088;8.122;2022-08-16T00:43:29;18.40;99.90
9509;DHT22;4792;50.088;8.122;2022-08-16T00:46:11;18.50;99.90
9509;DHT22;4792;50.088;8.122;2022-08-16T00:49:00;18.60;99.90
9509;DHT22;4792;50.088;8.122;2022-08-16T00:51:29;18.50;99.90
9509;DHT22;4792;50.088;8.122;2022-08-16T00:53:57;18.50;99.90
9509;DHT22;4792;50.088;8.122;2022-08-16T00:56:29;18.50;99.90
9509;DHT22;4792;50.088;8.122;2022-08-16T00:59:20;18.40;99.90
9509;DHT22;4792;50.088;8.122;2022-08-16T01:01:49;18.30;99.90
9509;DHT22;4792;50.088;8.122;2022-08-16T01:04:21;18.30;99.90
9509;DHT22;4792;50.088;8.122;2022-08-16T01:06:56;18.30;99.90
9509;DHT22;4792;50.088;8.122;2022-08-16T01:09:29;18.50;99.90
9509;DHT22;4792;50.088;8.122;2022-08-16T01:12:03;18.50;99.90
9509;DHT22;4792;50.088;8.122;2022-08-16T01:14:40;18.70;99.90
9509;DHT22;4792;50.088;8.122;2022-08-16T01:17:10;18.70;99.90
9509;DHT22;4792;50.088;8.122;2022-08-16T01:19:42;18.70;99.90
9509;DHT22;4792;50.088;8.122;2022-08-16T01:22:17;18.70;99.90
9509;DHT22;4792;50.088;8.122;2022-08-16T01:25:10;18.70;99.90
9509;DHT22;4792;50.088;8.122;2022-08-16T01:27:43;18.70;99.90
9509;DHT22;4792;50.088;8.122;2022-08-16T01:30:15;18.80;99.90
9509;DHT22;4792;50.088;8.122;2022-08-16T01:32:48;18.90;99.90
9509;DHT22;4792;50.088;8.122;2022-08-16T01:35:32;18.90;99.90
9509;DHT22;4792;50.088;8.122;2022-08-16T01:38:15;18.80;99.90
9509;DHT22;4792;50.088;8.122;2022-08-16T01:40:48;18.70;99.90
9509;DHT22;4792;50.088;8.122;2022-08-16T01:43:16;18.70;99.90
9509;DHT22;4792;50.088;8.122;2022-08-16T01:45:45;18.70;99.90
9509;DHT22;4792;50.088;8.122;2022-08-16T01:48:26;18.70;99.90
9509;DHT22;4792;50.088;8.122;2022-08-16T01:50:57;18.70;99.90
9509;DHT22;4792;50.088;8.122;2022-08-16T01:53:43;18.70;99.90
9509;DHT22;4792;50.088;8.122;2022-08-16T01:56:25;18.70;99.90
9509;DHT22;4792;50.088;8.122;2022-08-16T01:58:55;18.60;99.90
9509;DHT22;4792;50.088;8.122;2022-08-16T02:01:25;18.60;99.90
9509;DHT22;4792;50.088;8.122;2022-08-16T02:03:54;18.60;99.90
9509;DHT22;4792;50.088;8.122;2022-08-16T02:06:35;18.60;99.90
9509;DHT22;4792;50.088;8.122;2022-08-16T02:09:06;18.60;99.90
9509;DHT22;4792;50.088;8.122;2022-08-16T02:11:42;18.60;99.90
9509;DHT22;4792;50.088;8.122;2022-08-16T02:14:20;18.60;99.90
9509;DHT22;4792;50.088;8.122;2022-08-16T02:16:53;18.60;99.90
9509;DHT22;4792;50.088;8.122;2022-08-16T02:19:22;18.50;99.90
9509;DHT22;4792;50.088;8.122;2022-08-16T02:22:14;18.50;99.90
9509;DHT22;4792;50.088;8.122;2022-08-16T02:25:04;18.50;99.90
9509;DHT22;4792;50.088;8.122;2022-08-16T02:27:37;18.50;99.90
9509;DHT22;4792;50.088;8.122;2022-08-16T02:30:10;18.50;99.90
9509;DHT22;4792;50.088;8.122;2022-08-16T02:33:00;18.50;99.90
9509;DHT22;4792;50.088;8.122;2022-08-16T02:35:30;18.50;99.90
9509;DHT22;4792;50.088;8.122;2022-08-16T02:37:58;18.40;99.90
9509;DHT22;4792;50.088;8.122;2022-08-16T02:40:34;18.40;99.90
9509;DHT22;4792;50.088;8.122;2022-08-16T02:43:04;18.40;99.90
9509;DHT22;4792;50.088;8.122;2022-08-16T02:45:33;18.40;99.90
9509;DHT22;4792;50.088;8.122;2022-08-16T02:48:02;18.30;99.90
9509;DHT22;4792;50.088;8.122;2022-08-16T02:50:50;18.30;99.90
9509;DHT22;4792;50.088;8.122;2022-08-16T02:53:38;18.20;99.90
9509;DHT22;4792;50.088;8.122;2022-08-16T02:56:09;18.10;99.90
9509;DHT22;4792;50.088;8.122;2022-08-16T02:58:43;17.90;99.90
9509;DHT22;4792;50.088;8.122;2022-08-16T03:01:11;17.80;99.90
9509;DHT22;4792;50.088;8.122;2022-08-16T03:04:00;17.70;99.90
9509;DHT22;4792;50.088;8.122;2022-08-16T03:06:50;17.70;99.90
9509;DHT22;4792;50.088;8.122;2022-08-16T03:09:23;17.70;99.90
9509;DHT22;4792;50.088;8.122;2022-08-16T03:11:55;17.70;99.90
9509;DHT22;4792;50.088;8.122;2022-08-16T03:14:28;17.80;99.90
9509;DHT22;4792;50.088;8.122;2022-08-16T03:16:56;17.90;99.90
9509;DHT22;4792;50.088;8.122;2022-08-16T03:19:27;17.90;99.90
9509;DHT22;4792;50.088;8.122;2022-08-16T03:22:14;17.90;99.90
9509;DHT22;4792;50.088;8.122;2022-08-16T03:24:55;17.80;99.90
9509;DHT22;4792;50.088;8.122;2022-08-16T03:27:25;17.70;99.90
9509;DHT22;4792;50.088;8.122;2022-08-16T03:29:59;17.70;99.90
9509;DHT22;4792;50.088;8.122;2022-08-16T03:32:43;17.70;99.90
9509;DHT22;4792;50.088;8.122;2022-08-16T03:35:14;17.60;99.90
9509;DHT22;4792;50.088;8.122;2022-08-16T03:37:44;17.50;99.90
9509;DHT22;4792;50.088;8.122;2022-08-16T03:40:30;17.60;99.90
9509;DHT22;4792;50.088;8.122;2022-08-16T03:43:00;17.60;99.90
9509;DHT22;4792;50.088;8.122;2022-08-16T03:45:49;17.70;99.90
9509;DHT22;4792;50.088;8.122;2022-08-16T03:48:20;17.70;99.90
9509;DHT22;4792;50.088;8.122;2022-08-16T03:51:08;17.60;99.90
9509;DHT22;4792;50.088;8.122;2022-08-16T03:53:39;17.50;99.90
9509;DHT22;4792;50.088;8.122;2022-08-16T03:56:08;17.40;99.90
9509;DHT22;4792;50.088;8.122;2022-08-16T03:58:47;17.30;99.90
9509;DHT22;4792;50.088;8.122;2022-08-16T04:01:19;17.40;99.90
9509;DHT22;4792;50.088;8.122;2022-08-16T04:03:48;17.30;99.90
9509;DHT22;4792;50.088;8.122;2022-08-16T04:06:19;17.40;99.90
9509;DHT22;4792;50.088;8.122;2022-08-16T04:08:47;17.50;99.90
9509;DHT22;4792;50.088;8.122;2022-08-16T04:11:16;17.50;99.90
9509;DHT22;4792;50.088;8.122;2022-08-16T04:13:44;17.60;99.90
9509;DHT22;4792;50.088;8.122;2022-08-16T04:16:34;17.50;99.90
9509;DHT22;4792;50.088;8.122;2022-08-16T04:19:03;17.50;99.90
9509;DHT22;4792;50.088;8.122;2022-08-16T04:21:32;17.50;99.90
9509;DHT22;4792;50.088;8.122;2022-08-16T04:24:01;17.40;99.90
9509;DHT22;4792;50.088;8.122;2022-08-16T04:26:34;17.40;99.90
9509;DHT22;4792;50.088;8.122;2022-08-16T04:29:03;17.40;99.90
9509;DHT22;4792;50.088;8.122;2022-08-16T04:31:51;17.40;99.90
9509;DHT22;4792;50.088;8.122;2022-08-16T04:34:25;17.40;99.90
9509;DHT22;4792;50.088;8.122;2022-08-16T04:36:53;17.40;99.90
9509;DHT22;4792;50.088;8.122;2022-08-16T04:39:23;17.40;99.90
9509;DHT22;4792;50.088;8.122;2022-08-16T04:42:11;17.50;99.90
9509;DHT22;4792;50.088;8.122;2022-08-16T04:44:39;17.50;99.90
9509;DHT22;4792;50.088;8.122;2022-08-16T04:47:23;17.60;99.90
9509;DHT22;4792;50.088;8.122;2022-08-16T04:49:59;17.60;99.90
9509;DHT22;4792;50.088;8.122;2022-08-16T04:52:27;17.60;99.90
9509;DHT22;4792;50.088;8.122;2022-08-16T04:55:02;17.70;99.90
9509;DHT22;4792;50.088;8.122;2022-08-16T04:57:32;17.60;99.90
9509;DHT22;4792;50.088;8.122;2022-08-16T05:00:00;17.60;99.90
9509;DHT22;4792;50.088;8.122;2022-08-16T05:02:53;17.40;99.90
9509;DHT22;4792;50.088;8.122;2022-08-16T05:05:24;17.50;99.90
9509;DHT22;4792;50.088;8.122;2022-08-16T05:07:58;17.50;99.90
9509;DHT22;4792;50.088;8.122;2022-08-16T05:10:47;17.50;99.90
9509;DHT22;4792;50.088;8.122;2022-08-16T05:13:15;17.30;99.90
9509;DHT22;4792;50.088;8.122;2022-08-16T05:15:45;17.30;99.90
9509;DHT22;4792;50.088;8.122;2022-08-16T05:18:16;17.30;99.90
9509;DHT22;4792;50.088;8.122;2022-08-16T05:20:53;17.50;99.90
9509;DHT22;4792;50.088;8.122;2022-08-16T05:23:35;17.60;99.90
9509;DHT22;4792;50.088;8.122;2022-08-16T05:26:03;17.60;99.90
9509;DHT22;4792;50.088;8.122;2022-08-16T05:28:45;17.70;99.90
9509;DHT22;4792;50.088;8.122;2022-08-16T05:31:21;17.70;99.90
9509;DHT22;4792;50.088;8.122;2022-08-16T05:33:57;17.70;99.90
9509;DHT22;4792;50.088;8.122;2022-08-16T05:36:26;17.80;99.90
9509;DHT22;4792;50.088;8.122;2022-08-16T05:39:02;17.90;99.90
9509;DHT22;4792;50.088;8.122;2022-08-16T05:41:31;18.00;99.90
9509;DHT22;4792;50.088;8.122;2022-08-16T05:44:12;18.20;99.90
9509;DHT22;4792;50.088;8.122;2022-08-16T05:46:51;18.30;99.90
9509;DHT22;4792;50.088;8.122;2022-08-16T05:49:24;18.50;99.90
9509;DHT22;4792;50.088;8.122;2022-08-16T05:52:06;18.60;99.90
9509;DHT22;4792;50.088;8.122;2022-08-16T05:54:40;18.60;99.90
9509;DHT22;4792;50.088;8.122;2022-08-16T05:57:13;18.60;99.90
9509;DHT22;4792;50.088;8.122;2022-08-16T05:59:42;18.60;99.90
9509;DHT22;4792;50.088;8.122;2022-08-16T06:02:12;18.60;99.90
9509;DHT22;4792;50.088;8.122;2022-08-16T06:04:42;18.60;99.90
9509;DHT22;4792;50.088;8.122;2022-08-16T06:07:11;18.60;99.90
9509;DHT22;4792;50.088;8.122;2022-08-16T06:09:52;18.50;99.90
9509;DHT22;4792;50.088;8.122;2022-08-16T06:12:21;18.40;99.90
9509;DHT22;4792;50.088;8.122;2022-08-16T06:14:55;18.40;99.90
9509;DHT22;4792;50.088;8.122;2022-08-16T06:17:25;18.40;99.90
9509;DHT22;4792;50.088;8.122;2022-08-16T06:20:15;18.40;99.90
9509;DHT22;4792;50.088;8.122;2022-08-16T06:22:51;18.50;99.90
9509;DHT22;4792;50.088;8.122;2022-08-16T06:25:28;18.60;99.90
9509;DHT22;4792;50.088;8.122;2022-08-16T06:28:06;18.70;99.90
9509;DHT22;4792;50.088;8.122;2022-08-16T06:30:36;18.70;99.90
9509;DHT22;4792;50.088;8.122;2022-08-16T06:33:10;18.70;99.90
9509;DHT22;4792;50.088;8.122;2022-08-16T06:35:46;18.70;99.90
9509;DHT22;4792;50.088;8.122;2022-08-16T06:38:15;18.90;99.90
9509;DHT22;4792;50.088;8.122;2022-08-16T06:41:00;19.00;99.90
9509;DHT22;4792;50.088;8.122;2022-08-16T06:43:29;19.20;99.90
9509;DHT22;4792;50.088;8.122;2022-08-16T06:45:58;19.40;99.90
9509;DHT22;4792;50.088;8.122;2022-08-16T06:48:30;19.40;99.90
9509;DHT22;4792;50.088;8.122;2022-08-16T06:51:02;19.50;99.90
9509;DHT22;4792;50.088;8.122;2022-08-16T06:53:32;19.40;99.90
9509;DHT22;4792;50.088;8.122;2022-08-16T06:56:05;19.40;99.90
9509;DHT22;4792;50.088;8.122;2022-08-16T06:58:50;19.60;99.90
9509;DHT22;4792;50.088;8.122;2022-08-16T07:01:19;19.80;99.90
9509;DHT22;4792;50.088;8.122;2022-08-16T07:04:07;20.00;99.90
9509;DHT22;4792;50.088;8.122;2022-08-16T07:06:39;19.80;99.90
9509;DHT22;4792;50.088;8.122;2022-08-16T07:09:10;19.90;99.90
9509;DHT22;4792;50.088;8.122;2022-08-16T07:11:38;20.10;99.90
9509;DHT22;4792;50.088;8.122;2022-08-16T07:14:17;20.20;99.90
9509;DHT22;4792;50.088;8.122;2022-08-16T07:16:54;20.00;99.90
9509;DHT22;4792;50.088;8.122;2022-08-16T07:19:24;20.20;99.90
9509;DHT22;4792;50.088;8.122;2022-08-16T07:22:14;20.40;99.90
9509;DHT22;4792;50.088;8.122;2022-08-16T07:25:03;20.60;99.90
9509;DHT22;4792;50.088;8.122;2022-08-16T07:27:31;20.70;99.90
9509;DHT22;4792;50.088;8.122;2022-08-16T07:30:05;20.80;99.90
9509;DHT22;4792;50.088;8.122;2022-08-16T07:32:53;20.80;99.90
9509;DHT22;4792;50.088;8.122;2022-08-16T07:35:22;21.00;99.90
9509;DHT22;4792;50.088;8.122;2022-08-16T07:37:52;21.00;99.90
9509;DHT22;4792;50.088;8.122;2022-08-16T07:40:21;21.10;99.90
9509;DHT22;4792;50.088;8.122;2022-08-16T07:43:09;21.10;99.90
9509;DHT22;4792;50.088;8.122;2022-08-16T07:45:37;21.30;99.90
9509;DHT22;4792;50.088;8.122;2022-08-16T07:48:09;21.30;99.90
9509;DHT22;4792;50.088;8.122;2022-08-16T07:50:39;21.40;99.90
9509;DHT22;4792;50.088;8.122;2022-08-16T07:53:27;21.60;99.90
9509;DHT22;4792;50.088;8.122;2022-08-16T07:55:56;21.70;99.90
9509;DHT22;4792;50.088;8.122;2022-08-16T07:58:26;21.70;99.90
9509;DHT22;4792;50.088;8.122;2022-08-16T08:01:03;21.80;99.90
9509;DHT22;4792;50.088;8.122;2022-08-16T08:03:39;21.90;99.90
9509;DHT22;4792;50.088;8.122;2022-08-16T08:06:14;22.10;99.90
9509;DHT22;4792;50.088;8.122;2022-08-16T08:08:46;22.10;99.90
9509;DHT22;4792;50.088;8.122;2022-08-16T08:11:19;22.30;99.90
9509;DHT22;4792;50.088;8.122;2022-08-16T08:13:51;22.30;99.90
9509;DHT22;4792;50.088;8.122;2022-08-16T08:16:22;22.20;99.90
9509;DHT22;4792;50.088;8.122;2022-08-16T08:18:57;22.40;99.90
9509;DHT22;4792;50.088;8.122;2022-08-16T08:21:30;22.50;99.90
9509;DHT22;4792;50.088;8.122;2022-08-16T08:24:23;22.70;99.90
9509;DHT22;4792;50.088;8.122;2022-08-16T08:26:59;22.80;99.90
9509;DHT22;4792;50.088;8.122;2022-08-16T08:29:30;22.90;99.90
9509;DHT22;4792;50.088;8.122;2022-08-16T08:32:04;22.90;99.90
9509;DHT22;4792;50.088;8.122;2022-08-16T08:34:54;22.80;99.90
9509;DHT22;4792;50.088;8.122;2022-08-16T08:37:29;23.00;99.90
9509;DHT22;4792;50.088;8.122;2022-08-16T08:40:20;22.90;99.90
9509;DHT22;4792;50.088;8.122;2022-08-16T08:42:53;23.20;99.90
9509;DHT22;4792;50.088;8.122;2022-08-16T08:45:27;23.40;99.90
9509;DHT22;4792;50.088;8.122;2022-08-16T08:48:15;23.30;99.90
9509;DHT22;4792;50.088;8.122;2022-08-16T08:51:01;23.30;99.90
9509;DHT22;4792;50.088;8.122;2022-08-16T08:53:30;22.90;99.90
9509;DHT22;4792;50.088;8.122;2022-08-16T08:56:01;23.10;99.90
9509;DHT22;4792;50.088;8.122;2022-08-16T08:58:49;23.30;99.90
9509;DHT22;4792;50.088;8.122;2022-08-16T09:01:28;23.60;99.90
9509;DHT22;4792;50.088;8.122;2022-08-16T09:04:10;23.30;99.90
9509;DHT22;4792;50.088;8.122;2022-08-16T09:06:43;23.20;99.90
9509;DHT22;4792;50.088;8.122;2022-08-16T09:09:11;23.40;99.90
9509;DHT22;4792;50.088;8.122;2022-08-16T09:11:44;23.80;99.90
9509;DHT22;4792;50.088;8.122;2022-08-16T09:14:30;23.90;99.90
9509;DHT22;4792;50.088;8.122;2022-08-16T09:16:59;24.10;99.90
9509;DHT22;4792;50.088;8.122;2022-08-16T09:19:48;24.30;99.90
9509;DHT22;4792;50.088;8.122;2022-08-16T09:22:23;24.40;99.90
9509;DHT22;4792;50.088;8.122;2022-08-16T09:24:53;24.40;99.90
9509;DHT22;4792;50.088;8.122;2022-08-16T09:27:39;24.40;99.90
9509;DHT22;4792;50.088;8.122;2022-08-16T09:30:23;24.40;99.90
9509;DHT22;4792;50.088;8.122;2022-08-16T09:33:00;24.60;99.90
9509;DHT22;4792;50.088;8.122;2022-08-16T09:35:32;24.80;99.90
9509;DHT22;4792;50.088;8.122;2022-08-16T09:38:04;24.40;99.90
9509;DHT22;4792;50.088;8.122;2022-08-16T09:40:34;24.20;99.90
9509;DHT22;4792;50.088;8.122;2022-08-16T09:43:14;24.40;99.90
9509;DHT22;4792;50.088;8.122;2022-08-16T09:46:04;24.50;99.90
9509;DHT22;4792;50.088;8.122;2022-08-16T09:48:53;24.80;99.90
9509;DHT22;4792;50.088;8.122;2022-08-16T09:51:22;25.10;99.90
9509;DHT22;4792;50.088;8.122;2022-08-16T09:54:02;25.30;99.90
9509;DHT22;4792;50.088;8.122;2022-08-16T09:56:33;25.60;99.90
9509;DHT22;4792;50.088;8.122;2022-08-16T09:59:07;25.90;99.90
9509;DHT22;4792;50.088;8.122;2022-08-16T10:01:37;25.90;99.90
9509;DHT22;4792;50.088;8.122;2022-08-16T10:04:13;25.80;99.90
9509;DHT22;4792;50.088;8.122;2022-08-16T10:06:58;25.50;99.90
9509;DHT22;4792;50.088;8.122;2022-08-16T10:09:31;25.30;99.90
9509;DHT22;4792;50.088;8.122;2022-08-16T10:12:19;25.50;99.90
9509;DHT22;4792;50.088;8.122;2022-08-16T10:15:11;25.80;99.90
9509;DHT22;4792;50.088;8.122;2022-08-16T10:17:42;25.90;99.90
9509;DHT22;4792;50.088;8.122;2022-08-16T10:20:26;26.10;99.90
9509;DHT22;4792;50.088;8.122;2022-08-16T10:22:55;26.30;99.90
9509;DHT22;4792;50.088;8.122;2022-08-16T10:25:32;26.60;99.90
9509;DHT22;4792;50.088;8.122;2022-08-16T10:28:21;26.70;99.90
9509;DHT22;4792;50.088;8.122;2022-08-16T10:30:56;26.60;99.90
9509;DHT22;4792;50.088;8.122;2022-08-16T10:33:26;26.20;99.90
9509;DHT22;4792;50.088;8.122;2022-08-16T10:35:59;26.00;99.90
9509;DHT22;4792;50.088;8.122;2022-08-16T10:38:30;25.90;99.90
9509;DHT22;4792;50.088;8.122;2022-08-16T10:41:03;26.00;99.90
9509;DHT22;4792;50.088;8.122;2022-08-16T10:43:33;26.20;99.90
9509;DHT22;4792;50.088;8.122;2022-08-16T10:46:03;26.80;99.90
9509;DHT22;4792;50.088;8.122;2022-08-16T10:48:51;27.00;99.90
9509;DHT22;4792;50.088;8.122;2022-08-16T10:51:22;27.20;99.90
9509;DHT22;4792;50.088;8.122;2022-08-16T10:54:00;26.70;99.90
9509;DHT22;4792;50.088;8.122;2022-08-16T10:56:31;27.20;99.90
9509;DHT22;4792;50.088;8.122;2022-08-16T10:59:18;27.20;99.90
9509;DHT22;4792;50.088;8.122;2022-08-16T11:02:08;26.90;99.90
9509;DHT22;4792;50.088;8.122;2022-08-16T11:04:57;26.80;99.90
9509;DHT22;4792;50.088;8.122;2022-08-16T11:07:35;26.20;99.90
9509;DHT22;4792;50.088;8.122;2022-08-16T11:10:23;26.30;99.90
9509;DHT22;4792;50.088;8.122;2022-08-16T11:13:15;26.90;99.90
9509;DHT22;4792;50.088;8.122;2022-08-16T11:16:05;26.80;99.90
9509;DHT22;4792;50.088;8.122;2022-08-16T11:18:54;26.80;99.90
9509;DHT22;4792;50.088;8.122;2022-08-16T11:21:32;27.00;99.90
9509;DHT22;4792;50.088;8.122;2022-08-16T11:24:23;27.50;99.90
9509;DHT22;4792;50.088;8.122;2022-08-16T11:27:10;27.70;99.90
9509;DHT22;4792;50.088;8.122;2022-08-16T11:29:51;27.90;99.90
9509;DHT22;4792;50.088;8.122;2022-08-16T11:32:22;28.20;99.90
9509;DHT22;4792;50.088;8.122;2022-08-16T11:35:02;28.50;99.90
9509;DHT22;4792;50.088;8.122;2022-08-16T11:37:43;28.70;99.90
9509;DHT22;4792;50.088;8.122;2022-08-16T11:40:34;29.10;99.90
9509;DHT22;4792;50.088;8.122;2022-08-16T11:43:04;29.00;99.90
9509;DHT22;4792;50.088;8.122;2022-08-16T11:45:36;28.70;99.90
9509;DHT22;4792;50.088;8.122;2022-08-16T11:48:05;28.70;99.90
9509;DHT22;4792;50.088;8.122;2022-08-16T11:50:34;28.60;99.90
9509;DHT22;4792;50.088;8.122;2022-08-16T11:53:04;28.50;99.90
9509;DHT22;4792;50.088;8.122;2022-08-16T11:55:35;29.00;99.90
9509;DHT22;4792;50.088;8.122;2022-08-16T11:58:05;29.40;99.90
9509;DHT22;4792;50.088;8.122;2022-08-16T12:00:38;29.90;99.90
9509;DHT22;4792;50.088;8.122;2022-08-16T12:03:17;29.90;99.90
9509;DHT22;4792;50.088;8.122;2022-08-16T12:06:00;29.70;99.90
9509;DHT22;4792;50.088;8.122;2022-08-16T12:08:30;30.20;99.90
9509;DHT22;4792;50.088;8.122;2022-08-16T12:10:59;30.60;99.90
9509;DHT22;4792;50.088;8.122;2022-08-16T12:13:28;30.30;99.90
9509;DHT22;4792;50.088;8.122;2022-08-16T12:15:56;30.40;99.90
9509;DHT22;4792;50.088;8.122;2022-08-16T12:18:24;30.20;99.90
9509;DHT22;4792;50.088;8.122;2022-08-16T12:20:52;30.30;99.90
9509;DHT22;4792;50.088;8.122;2022-08-16T12:23:25;30.00;99.90
9509;DHT22;4792;50.088;8.122;2022-08-16T12:25:57;29.50;99.90
9509;DHT22;4792;50.088;8.122;2022-08-16T12:28:25;29.40;99.90
9509;DHT22;4792;50.088;8.122;2022-08-16T12:31:13;29.50;99.90
9509;DHT22;4792;50.088;8.122;2022-08-16T12:33:42;29.80;99.90
9509;DHT22;4792;50.088;8.122;2022-08-16T12:36:11;30.30;99.90
9509;DHT22;4792;50.088;8.122;2022-08-16T12:38:41;30.70;99.90
9509;DHT22;4792;50.088;8.122;2022-08-16T12:41:15;30.90;99.90
9509;DHT22;4792;50.088;8.122;2022-08-16T12:43:51;31.10;99.90
9509;DHT22;4792;50.088;8.122;2022-08-16T12:46:27;30.30;99.90
9509;DHT22;4792;50.088;8.122;2022-08-16T12:48:57;30.40;99.90
9509;DHT22;4792;50.088;8.122;2022-08-16T12:51:28;30.90;99.90
9509;DHT22;4792;50.088;8.122;2022-08-16T12:54:19;31.30;99.90
9509;DHT22;4792;50.088;8.122;2022-08-16T12:56:47;31.70;99.40
9509;DHT22;4792;50.088;8.122;2022-08-16T12:59:17;31.70;99.10
9509;DHT22;4792;50.088;8.122;2022-08-16T13:01:47;31.90;98.90
9509;DHT22;4792;50.088;8.122;2022-08-16T13:04:24;32.10;98.20
9509;DHT22;4792;50.088;8.122;2022-08-16T13:06:59;31.70;97.80
9509;DHT22;4792;50.088;8.122;2022-08-16T13:09:33;31.90;97.90
9509;DHT22;4792;50.088;8.122;2022-08-16T13:12:10;31.60;97.80
9509;DHT22;4792;50.088;8.122;2022-08-16T13:14:47;31.50;98.30
9509;DHT22;4792;50.088;8.122;2022-08-16T13:17:18;31.70;97.80
9509;DHT22;4792;50.088;8.122;2022-08-16T13:19:46;31.90;97.50
9509;DHT22;4792;50.088;8.122;2022-08-16T13:22:34;31.80;97.70
9509;DHT22;4792;50.088;8.122;2022-08-16T13:25:07;31.30;97.50
9509;DHT22;4792;50.088;8.122;2022-08-16T13:27:35;30.30;98.40
9509;DHT22;4792;50.088;8.122;2022-08-16T13:30:25;30.00;99.00
9509;DHT22;4792;50.088;8.122;2022-08-16T13:33:08;29.80;99.30
9509;DHT22;4792;50.088;8.122;2022-08-16T13:35:43;29.90;99.60
9509;DHT22;4792;50.088;8.122;2022-08-16T13:38:22;30.40;99.10
9509;DHT22;4792;50.088;8.122;2022-08-16T13:40:54;30.50;98.60
9509;DHT22;4792;50.088;8.122;2022-08-16T13:43:24;30.60;99.10
9509;DHT22;4792;50.088;8.122;2022-08-16T13:45:53;30.80;98.50
9509;DHT22;4792;50.088;8.122;2022-08-16T13:48:22;30.60;98.60
9509;DHT22;4792;50.088;8.122;2022-08-16T13:50:52;30.50;98.70
9509;DHT22;4792;50.088;8.122;2022-08-16T13:53:22;30.60;98.50
9509;DHT22;4792;50.088;8.122;2022-08-16T13:55:53;30.30;98.60
9509;DHT22;4792;50.088;8.122;2022-08-16T13:58:25;30.30;98.50
9509;DHT22;4792;50.088;8.122;2022-08-16T14:01:04;30.40;97.50
9509;DHT22;4792;50.088;8.122;2022-08-16T14:03:36;30.40;97.90
9509;DHT22;4792;50.088;8.122;2022-08-16T14:06:05;31.20;97.70
9509;DHT22;4792;50.088;8.122;2022-08-16T14:08:37;31.90;96.40
9509;DHT22;4792;50.088;8.122;2022-08-16T14:11:10;31.90;95.50
9509;DHT22;4792;50.088;8.122;2022-08-16T14:13:41;31.30;95.90
9509;DHT22;4792;50.088;8.122;2022-08-16T14:16:10;31.20;96.00
9509;DHT22;4792;50.088;8.122;2022-08-16T14:18:56;30.80;96.50
9509;DHT22;4792;50.088;8.122;2022-08-16T14:21:24;31.30;97.00
9509;DHT22;4792;50.088;8.122;2022-08-16T14:24:00;31.90;95.60
9509;DHT22;4792;50.088;8.122;2022-08-16T14:26:50;32.30;94.80
9509;DHT22;4792;50.088;8.122;2022-08-16T14:29:19;32.10;95.40
9509;DHT22;4792;50.088;8.122;2022-08-16T14:31:48;31.50;95.10
9509;DHT22;4792;50.088;8.122;2022-08-16T14:34:20;31.40;95.60
9509;DHT22;4792;50.088;8.122;2022-08-16T14:36:51;31.30;95.50
9509;DHT22;4792;50.088;8.122;2022-08-16T14:39:20;31.20;95.60
9509;DHT22;4792;50.088;8.122;2022-08-16T14:41:50;31.50;95.40
9509;DHT22;4792;50.088;8.122;2022-08-16T14:44:21;31.40;95.00
9509;DHT22;4792;50.088;8.122;2022-08-16T14:46:52;31.30;94.70
9509;DHT22;4792;50.088;8.122;2022-08-16T14:49:21;31.50;93.90
9509;DHT22;4792;50.088;8.122;2022-08-16T14:51:49;32.00;94.00
9509;DHT22;4792;50.088;8.122;2022-08-16T14:54:18;32.50;93.30
9509;DHT22;4792;50.088;8.122;2022-08-16T14:56:47;32.80;92.20
9509;DHT22;4792;50.088;8.122;2022-08-16T14:59:22;32.90;92.00
9509;DHT22;4792;50.088;8.122;2022-08-16T15:01:50;33.10;92.30
9509;DHT22;4792;50.088;8.122;2022-08-16T15:04:26;33.20;91.70
9509;DHT22;4792;50.088;8.122;2022-08-16T15:07:06;32.60;91.10
9509;DHT22;4792;50.088;8.122;2022-08-16T15:09:39;32.00;92.20
9509;DHT22;4792;50.088;8.122;2022-08-16T15:12:26;31.60;92.70
9509;DHT22;4792;50.088;8.122;2022-08-16T15:15:01;31.80;92.10
9509;DHT22;4792;50.088;8.122;2022-08-16T15:17:39;31.90;92.40
9509;DHT22;4792;50.088;8.122;2022-08-16T15:20:21;32.30;91.10
9509;DHT22;4792;50.088;8.122;2022-08-16T15:22:52;32.60;90.80
9509;DHT22;4792;50.088;8.122;2022-08-16T15:25:23;33.10;90.30
9509;DHT22;4792;50.088;8.122;2022-08-16T15:27:55;33.40;90.10
9509;DHT22;4792;50.088;8.122;2022-08-16T15:30:26;33.30;89.80
9509;DHT22;4792;50.088;8.122;2022-08-16T15:33:16;33.00;90.50
9509;DHT22;4792;50.088;8.122;2022-08-16T15:35:46;32.40;91.50
9509;DHT22;4792;50.088;8.122;2022-08-16T15:38:17;32.20;91.30
9509;DHT22;4792;50.088;8.122;2022-08-16T15:41:05;32.10;91.20
9509;DHT22;4792;50.088;8.122;2022-08-16T15:43:33;32.00;91.40
9509;DHT22;4792;50.088;8.122;2022-08-16T15:46:08;32.20;91.50
9509;DHT22;4792;50.088;8.122;2022-08-16T15:49:12;32.40;90.90
9509;DHT22;4792;50.088;8.122;2022-08-16T15:51:41;32.40;91.00
9509;DHT22;4792;50.088;8.122;2022-08-16T15:54:11;32.40;91.30
9509;DHT22;4792;50.088;8.122;2022-08-16T15:56:56;31.90;91.00
9509;DHT22;4792;50.088;8.122;2022-08-16T15:59:38;31.50;91.60
9509;DHT22;4792;50.088;8.122;2022-08-16T16:02:19;30.90;92.80
9509;DHT22;4792;50.088;8.122;2022-08-16T16:04:58;30.40;93.50
9509;DHT22;4792;50.088;8.122;2022-08-16T16:07:29;30.60;93.10
9509;DHT22;4792;50.088;8.122;2022-08-16T16:10:00;30.90;93.00
9509;DHT22;4792;50.088;8.122;2022-08-16T16:12:33;31.10;93.00
9509;DHT22;4792;50.088;8.122;2022-08-16T16:15:23;31.30;92.60
9509;DHT22;4792;50.088;8.122;2022-08-16T16:17:56;31.20;92.20
9509;DHT22;4792;50.088;8.122;2022-08-16T16:20:32;31.00;92.90
9509;DHT22;4792;50.088;8.122;2022-08-16T16:23:06;30.80;93.20
9509;DHT22;4792;50.088;8.122;2022-08-16T16:25:37;30.90;93.40
9509;DHT22;4792;50.088;8.122;2022-08-16T16:28:10;30.80;93.20
9509;DHT22;4792;50.088;8.122;2022-08-16T16:30:59;30.80;93.40
9509;DHT22;4792;50.088;8.122;2022-08-16T16:33:30;30.90;93.50
9509;DHT22;4792;50.088;8.122;2022-08-16T16:36:02;30.70;93.70
9509;DHT22;4792;50.088;8.122;2022-08-16T16:38:33;30.60;93.80
9509;DHT22;4792;50.088;8.122;2022-08-16T16:41:04;30.80;94.00
9509;DHT22;4792;50.088;8.122;2022-08-16T16:43:36;30.80;93.70
9509;DHT22;4792;50.088;8.122;2022-08-16T16:46:07;30.60;93.90
9509;DHT22;4792;50.088;8.122;2022-08-16T16:48:57;30.50;94.20
9509;DHT22;4792;50.088;8.122;2022-08-16T16:51:29;30.50;94.70
9509;DHT22;4792;50.088;8.122;2022-08-16T16:54:07;30.50;94.30
9509;DHT22;4792;50.088;8.122;2022-08-16T16:56:39;30.30;94.30